createdAt,value
2022-11-16T00:01:03.197Z,5.17
2022-11-16T00:03:33.992Z,4.74
2022-11-16T00:06:05.535Z,4.65
2022-11-16T00:08:36.657Z,4.56
2022-11-16T00:11:08.363Z,4.84
2022-11-16T00:13:38.335Z,4.97
2022-11-16T00:16:08.257Z,5.00
2022-11-16T00:18:38.531Z,4.63
2022-11-16T00:21:07.923Z,4.76
2022-11-16T00:23:38.484Z,4.86
2022-11-16T00:26:09.391Z,4.81
2022-11-16T00:28:38.257Z,4.96
2022-11-16T00:31:08.572Z,4.59
2022-11-16T00:33:39.944Z,4.71
2022-11-16T00:36:11.552Z,4.68
2022-11-16T00:38:40.876Z,4.33
2022-11-16T00:41:10.353Z,4.29
2022-11-16T00:43:39.440Z,4.58
2022-11-16T00:46:08.283Z,4.42
2022-11-16T00:48:38.627Z,3.70
2022-11-16T00:51:07.734Z,4.13
2022-11-16T00:53:37.277Z,4.36
2022-11-16T00:56:06.724Z,4.17
2022-11-16T00:58:41.581Z,4.29
2022-11-16T01:01:13.001Z,4.59
2022-11-16T01:03:43.406Z,4.91
2022-11-16T01:06:15.071Z,4.25
2022-11-16T01:08:45.243Z,4.02
2022-11-16T01:11:33.248Z,4.37
2022-11-16T01:14:03.326Z,4.21
2022-11-16T01:16:32.553Z,4.04
2022-11-16T01:19:03.885Z,3.84
2022-11-16T01:21:32.940Z,3.49
2022-11-16T01:24:01.989Z,3.89
2022-11-16T01:26:31.077Z,4.20
2022-11-16T01:29:00.392Z,4.41
2022-11-16T01:31:33.591Z,4.55
2022-11-16T01:34:06.260Z,4.64
2022-11-16T01:36:36.777Z,4.93
2022-11-16T01:39:07.048Z,4.81
2022-11-16T01:41:50.801Z,4.97
2022-11-16T01:44:57.682Z,5.11
2022-11-16T01:47:26.945Z,5.06
2022-11-16T01:50:03.664Z,5.12
2022-11-16T01:52:37.845Z,5.10
2022-11-16T01:55:07.701Z,5.18
2022-11-16T01:57:48.645Z,5.11
2022-11-16T02:00:19.335Z,5.01
2022-11-16T02:03:02.074Z,4.90
2022-11-16T02:06:17.240Z,4.99
2022-11-16T02:09:20.286Z,5.03
2022-11-16T02:12:10.023Z,4.96
2022-11-16T02:14:54.065Z,5.04
2022-11-16T02:17:34.243Z,4.88
2022-11-16T02:20:40.936Z,4.73
2022-11-16T02:23:45.895Z,4.22
2022-11-16T02:26:35.993Z,3.83
2022-11-16T02:29:21.811Z,3.76
2022-11-16T02:31:55.459Z,3.49
2022-11-16T02:34:28.177Z,3.64
2022-11-16T02:36:59.290Z,3.77
2022-11-16T02:39:33.120Z,3.44
2022-11-16T02:42:05.418Z,3.79
2022-11-16T02:44:37.642Z,4.02
2022-11-16T02:47:11.056Z,4.15
2022-11-16T02:49:46.380Z,3.78
2022-11-16T02:52:17.865Z,3.74
2022-11-16T02:54:46.722Z,3.79
2022-11-16T02:57:50.662Z,2.95
2022-11-16T03:00:27.663Z,3.48
2022-11-16T03:03:13.138Z,3.81
2022-11-16T03:05:47.739Z,3.94
2022-11-16T03:08:23.264Z,4.19
2022-11-16T03:11:15.615Z,4.35
2022-11-16T03:13:46.412Z,4.31
2022-11-16T03:16:22.373Z,4.13
2022-11-16T03:18:53.460Z,4.25
2022-11-16T03:21:29.127Z,4.37
2022-11-16T03:23:58.329Z,4.62
2022-11-16T03:26:33.329Z,4.60
2022-11-16T03:29:09.652Z,4.83
2022-11-16T03:31:47.267Z,4.49
2022-11-16T03:34:23.957Z,4.19
2022-11-16T03:36:54.222Z,3.62
2022-11-16T03:39:27.096Z,3.78
2022-11-16T03:41:58.308Z,3.96
2022-11-16T03:44:28.766Z,4.13
2022-11-16T03:46:59.048Z,4.18
2022-11-16T03:49:31.122Z,4.31
2022-11-16T03:52:00.246Z,4.38
2022-11-16T03:54:30.958Z,4.47
2022-11-16T03:56:59.858Z,4.59
2022-11-16T03:59:29.476Z,4.42
2022-11-16T04:02:00.890Z,4.60
2022-11-16T04:04:46.985Z,4.34
2022-11-16T04:07:33.284Z,4.33
2022-11-16T04:10:19.724Z,3.97
2022-11-16T04:13:06.976Z,3.33
2022-11-16T04:15:53.159Z,3.66
2022-11-16T04:18:41.017Z,3.54
2022-11-16T04:21:35.821Z,3.84
2022-11-16T04:24:14.640Z,4.01
2022-11-16T04:27:03.949Z,4.24
2022-11-16T04:29:34.165Z,4.34
2022-11-16T04:32:21.515Z,4.22
2022-11-16T04:35:09.606Z,4.31
2022-11-16T04:37:52.576Z,3.97
2022-11-16T04:40:30.269Z,3.68
2022-11-16T04:43:00.411Z,3.38
2022-11-16T04:45:51.901Z,3.36
2022-11-16T04:48:24.569Z,2.93
2022-11-16T04:50:57.900Z,2.77
2022-11-16T04:53:28.066Z,2.71
2022-11-16T04:56:12.497Z,2.85
2022-11-16T04:58:41.570Z,2.29
2022-11-16T05:01:11.965Z,2.57
2022-11-16T05:03:40.944Z,2.64
2022-11-16T05:06:11.720Z,3.01
2022-11-16T05:08:40.688Z,3.19
2022-11-16T05:11:09.710Z,3.16
2022-11-16T05:13:39.001Z,2.78
2022-11-16T05:16:09.807Z,2.43
2022-11-16T05:18:39.117Z,2.73
2022-11-16T05:21:08.002Z,2.87
2022-11-16T05:23:59.254Z,3.04
2022-11-16T05:26:32.479Z,3.17
2022-11-16T05:29:01.658Z,3.39
2022-11-16T05:31:40.120Z,3.10
2022-11-16T05:34:10.860Z,3.03
2022-11-16T05:36:39.868Z,3.00
2022-11-16T05:39:12.429Z,3.39
2022-11-16T05:41:43.488Z,3.40
2022-11-16T05:44:12.689Z,3.13
2022-11-16T05:46:41.748Z,2.67
2022-11-16T05:49:12.040Z,2.97
2022-11-16T05:51:44.951Z,3.17
2022-11-16T05:54:18.749Z,2.99
2022-11-16T05:56:48.304Z,3.28
2022-11-16T05:59:19.479Z,2.95
2022-11-16T06:01:52.200Z,3.46
2022-11-16T06:04:27.117Z,3.30
2022-11-16T06:06:56.827Z,3.18
2022-11-16T06:09:32.611Z,2.56
2022-11-16T06:12:09.356Z,2.94
2022-11-16T06:14:38.430Z,3.21
2022-11-16T06:17:07.984Z,3.25
2022-11-16T06:19:36.957Z,3.08
2022-11-16T06:22:05.815Z,3.02
2022-11-16T06:24:37.150Z,3.54
2022-11-16T06:27:06.012Z,3.30
2022-11-16T06:29:36.916Z,2.75
2022-11-16T06:32:06.399Z,3.13
2022-11-16T06:34:36.687Z,3.53
2022-11-16T06:37:05.921Z,3.98
2022-11-16T06:39:37.228Z,4.06
2022-11-16T06:42:06.388Z,4.38
2022-11-16T06:44:36.822Z,3.84
2022-11-16T06:47:07.791Z,3.84
2022-11-16T06:49:37.504Z,3.78
2022-11-16T06:52:12.837Z,4.25
2022-11-16T06:54:43.600Z,3.39
2022-11-16T06:57:13.697Z,4.20
2022-11-16T06:59:42.592Z,4.54
2022-11-16T07:02:12.067Z,4.54
2022-11-16T07:04:41.900Z,4.52
2022-11-16T07:07:10.905Z,4.42
2022-11-16T07:09:40.683Z,4.53
2022-11-16T07:12:11.659Z,4.84
2022-11-16T07:14:42.888Z,4.91
2022-11-16T07:17:13.315Z,5.01
2022-11-16T07:19:42.243Z,4.85
2022-11-16T07:22:11.154Z,5.34
2022-11-16T07:24:40.571Z,5.25
2022-11-16T07:27:12.505Z,5.63
2022-11-16T07:29:45.914Z,6.06
2022-11-16T07:32:42.606Z,6.06
2022-11-16T07:35:16.960Z,6.59
2022-11-16T07:37:45.865Z,6.88
2022-11-16T07:40:17.393Z,6.97
2022-11-16T07:42:49.425Z,7.75
2022-11-16T07:45:36.895Z,7.72
2022-11-16T07:48:09.570Z,7.63
2022-11-16T07:51:01.995Z,7.84
2022-11-16T07:53:33.259Z,8.19
2022-11-16T07:56:03.339Z,8.48
2022-11-16T07:58:37.022Z,8.57
2022-11-16T08:01:07.886Z,8.62
2022-11-16T08:03:37.932Z,8.94
2022-11-16T08:06:12.372Z,8.99
2022-11-16T08:08:41.515Z,9.20
2022-11-16T08:11:12.214Z,9.15
2022-11-16T08:13:43.057Z,9.23
2022-11-16T08:16:14.923Z,9.19
2022-11-16T08:18:46.020Z,9.20
2022-11-16T08:21:18.754Z,9.22
2022-11-16T08:23:48.764Z,9.22
2022-11-16T08:26:22.022Z,9.16
2022-11-16T08:29:00.326Z,-145.44
2022-11-16T08:31:34.973Z,-145.44
2022-11-16T08:34:14.189Z,-145.44
2022-11-16T08:36:46.918Z,-145.44
2022-11-16T08:39:16.041Z,-145.44
2022-11-16T08:41:45.726Z,-145.44
2022-11-16T08:44:16.713Z,-145.44
2022-11-16T08:46:48.661Z,9.76
2022-11-16T08:49:28.966Z,9.89
2022-11-16T08:51:58.253Z,9.43
2022-11-16T08:54:29.511Z,9.27
2022-11-16T08:56:59.081Z,9.44
2022-11-16T08:59:29.624Z,9.49
2022-11-16T09:02:04.175Z,-145.44
2022-11-16T09:04:36.993Z,-145.44
2022-11-16T09:07:06.631Z,-145.44
2022-11-16T09:09:35.548Z,-145.44
2022-11-16T09:12:04.456Z,-145.44
2022-11-16T09:14:34.691Z,-145.44
2022-11-16T09:17:04.169Z,-145.44
2022-11-16T09:19:33.023Z,-145.44
2022-11-16T09:22:02.052Z,-145.44
2022-11-16T09:24:31.502Z,-145.44
2022-11-16T09:27:02.054Z,-145.44
2022-11-16T09:29:31.168Z,-145.44
2022-11-16T09:32:02.263Z,-145.44
2022-11-16T09:34:31.159Z,10.29
2022-11-16T09:36:59.989Z,10.05
2022-11-16T09:42:34.644Z,10.38
2022-11-16T09:45:08.463Z,10.63
2022-11-16T09:47:49.166Z,10.53
2022-11-16T09:53:27.032Z,9.80
2022-11-16T09:55:59.785Z,10.07
2022-11-16T09:58:32.989Z,10.13
2022-11-16T10:01:07.411Z,10.35
2022-11-16T10:03:44.420Z,9.57
2022-11-16T10:06:22.100Z,10.14
2022-11-16T10:08:52.895Z,10.31
2022-11-16T10:11:42.101Z,11.00
2022-11-16T10:14:32.387Z,11.25
2022-11-16T10:17:07.720Z,11.26
2022-11-16T10:19:43.046Z,11.24
2022-11-16T10:22:24.158Z,11.63
2022-11-16T10:24:58.923Z,11.72
2022-11-16T10:27:39.763Z,10.69
2022-11-16T10:30:12.225Z,11.51
2022-11-16T10:32:48.858Z,11.69
2022-11-16T10:35:25.341Z,10.98
2022-11-16T10:37:54.277Z,10.84
2022-11-16T10:40:27.008Z,11.03
2022-11-16T10:43:06.854Z,11.30
2022-11-16T10:45:40.950Z,11.85
2022-11-16T10:48:20.821Z,12.34
2022-11-16T10:50:53.700Z,13.30
2022-11-16T10:53:30.995Z,13.99
2022-11-16T10:56:12.729Z,14.04
2022-11-16T10:59:00.225Z,14.00
2022-11-16T11:01:32.802Z,14.37
2022-11-16T11:04:19.700Z,13.53
2022-11-16T11:06:52.578Z,13.17
2022-11-16T11:09:26.748Z,12.58
2022-11-16T11:12:21.115Z,12.06
2022-11-16T11:15:01.957Z,12.12
2022-11-16T11:17:32.311Z,12.02
2022-11-16T11:20:04.218Z,11.71
2022-11-16T11:22:42.575Z,11.39
2022-11-16T11:25:21.634Z,11.69
2022-11-16T11:27:51.302Z,11.62
2022-11-16T11:30:21.651Z,12.16
2022-11-16T11:32:52.923Z,12.28
2022-11-16T11:35:26.458Z,12.32
2022-11-16T11:38:04.781Z,12.44
2022-11-16T11:43:24.857Z,12.71
2022-11-16T11:45:59.954Z,12.39
2022-11-16T11:48:36.596Z,12.80
2022-11-16T11:51:12.822Z,12.83
2022-11-16T11:53:51.633Z,12.64
2022-11-16T11:56:20.869Z,12.55
2022-11-16T11:58:51.695Z,13.08
2022-11-16T12:01:44.544Z,13.33
2022-11-16T12:04:49.439Z,13.72
2022-11-16T12:07:31.445Z,14.09
2022-11-16T12:10:13.537Z,14.37
2022-11-16T12:12:55.803Z,14.38
2022-11-16T12:15:44.252Z,14.12
2022-11-16T12:18:31.008Z,14.41
2022-11-16T12:21:06.247Z,14.42
2022-11-16T12:23:47.388Z,14.43
2022-11-16T12:26:26.748Z,14.48
2022-11-16T12:29:11.164Z,14.12
2022-11-16T12:32:08.631Z,13.86
2022-11-16T12:34:54.592Z,13.86
2022-11-16T12:37:31.810Z,13.58
2022-11-16T12:40:21.431Z,13.18
2022-11-16T12:43:00.834Z,13.51
2022-11-16T12:45:46.138Z,13.58
2022-11-16T12:48:32.689Z,13.41
2022-11-16T12:51:09.756Z,13.52
2022-11-16T12:54:00.294Z,13.67
2022-11-16T12:56:44.622Z,13.87
2022-11-16T12:59:49.664Z,13.75
2022-11-16T13:02:31.182Z,14.00
2022-11-16T13:05:06.344Z,14.01
2022-11-16T13:07:43.882Z,14.21
2022-11-16T13:10:19.705Z,13.81
2022-11-16T13:12:55.884Z,14.13
2022-11-16T13:15:37.371Z,14.27
2022-11-16T13:18:09.164Z,14.38
2022-11-16T13:20:46.941Z,14.51
2022-11-16T13:23:21.258Z,14.44
2022-11-16T13:25:54.922Z,14.21
2022-11-16T13:28:33.811Z,14.15
2022-11-16T13:31:13.608Z,13.77
2022-11-16T13:33:50.721Z,13.73
2022-11-16T13:36:46.203Z,13.88
2022-11-16T13:39:22.219Z,13.81
2022-11-16T13:41:53.129Z,13.49
2022-11-16T13:44:31.056Z,13.41
2022-11-16T13:47:05.315Z,13.60
2022-11-16T13:49:37.449Z,13.74
2022-11-16T13:52:31.550Z,13.83
2022-11-16T13:55:16.768Z,13.95
2022-11-16T13:57:53.486Z,14.07
2022-11-16T14:00:25.464Z,14.05
2022-11-16T14:03:27.642Z,13.62
2022-11-16T14:05:56.634Z,13.28
2022-11-16T14:08:51.107Z,13.18
2022-11-16T14:11:36.016Z,12.94
2022-11-16T14:14:07.237Z,13.31
2022-11-16T14:16:47.831Z,13.38
2022-11-16T14:19:55.134Z,13.49
2022-11-16T14:22:39.659Z,13.22
2022-11-16T14:25:19.094Z,13.35
2022-11-16T14:27:55.886Z,13.18
2022-11-16T14:30:27.174Z,13.34
2022-11-16T14:32:58.574Z,13.35
2022-11-16T14:35:33.862Z,13.74
2022-11-16T14:38:04.099Z,13.63
2022-11-16T14:40:35.713Z,13.56
2022-11-16T14:43:16.863Z,13.10
2022-11-16T14:45:50.260Z,13.32
2022-11-16T14:48:21.626Z,13.35
2022-11-16T14:51:05.109Z,13.36
2022-11-16T14:53:36.351Z,13.24
2022-11-16T14:56:10.990Z,13.37
2022-11-16T14:58:40.699Z,13.35
2022-11-16T15:01:15.322Z,12.97
2022-11-16T15:03:53.723Z,13.17
2022-11-16T15:06:26.208Z,13.15
2022-11-16T15:08:59.400Z,13.17
2022-11-16T15:11:44.784Z,13.27
2022-11-16T15:14:19.420Z,13.11
2022-11-16T15:16:53.056Z,13.09
2022-11-16T15:19:22.814Z,13.27
2022-11-16T15:21:55.061Z,13.44
2022-11-16T15:24:30.965Z,13.49
2022-11-16T15:27:11.740Z,13.25
2022-11-16T15:29:40.846Z,13.30
2022-11-16T15:32:17.885Z,13.39
2022-11-16T15:34:51.194Z,13.25
2022-11-16T15:37:30.051Z,13.18
2022-11-16T15:40:00.055Z,13.33
2022-11-16T15:42:30.193Z,13.56
2022-11-16T15:45:15.524Z,13.61
2022-11-16T15:47:46.556Z,13.17
2022-11-16T15:50:19.424Z,13.36
2022-11-16T15:52:55.096Z,13.34
2022-11-16T15:55:35.696Z,13.29
2022-11-16T15:58:15.530Z,13.31
2022-11-16T16:00:49.182Z,12.87
2022-11-16T16:03:22.736Z,12.85
2022-11-16T16:05:52.820Z,13.22
2022-11-16T16:08:32.421Z,13.40
2022-11-16T16:11:10.820Z,13.40
2022-11-16T16:13:41.934Z,13.15
2022-11-16T16:16:24.118Z,13.12
2022-11-16T16:18:54.589Z,13.35
2022-11-16T16:21:24.367Z,13.20
2022-11-16T16:23:56.637Z,13.48
2022-11-16T16:26:25.648Z,13.83
2022-11-16T16:28:54.478Z,13.97
2022-11-16T16:31:23.413Z,14.05
2022-11-16T16:33:52.314Z,13.90
2022-11-16T16:36:21.343Z,-145.44
2022-11-16T16:38:50.417Z,-145.44
2022-11-16T16:41:24.464Z,-145.44
2022-11-16T16:43:53.755Z,-145.44
2022-11-16T16:46:22.825Z,-145.44
2022-11-16T16:48:51.718Z,-145.44
2022-11-16T16:51:20.616Z,-145.44
2022-11-16T16:53:49.457Z,-145.44
2022-11-16T16:56:19.958Z,-145.44
2022-11-16T16:58:50.291Z,-145.44
2022-11-16T17:01:19.371Z,-145.44
2022-11-16T17:03:48.371Z,-145.44
2022-11-16T17:06:17.248Z,-145.44
2022-11-16T17:08:46.789Z,-145.44
2022-11-16T17:11:17.889Z,-145.44
2022-11-16T17:13:46.769Z,-145.44
2022-11-16T17:16:17.070Z,-145.44
2022-11-16T17:18:46.331Z,-145.44
2022-11-16T17:21:15.309Z,11.76
2022-11-16T17:23:44.121Z,12.00
2022-11-16T17:26:13.148Z,12.17
2022-11-16T17:28:42.009Z,12.02
2022-11-16T17:31:12.690Z,12.02
2022-11-16T17:33:43.883Z,11.95
2022-11-16T17:36:14.147Z,11.85
2022-11-16T17:38:43.062Z,11.95
2022-11-16T17:41:13.824Z,12.12
2022-11-16T17:43:44.450Z,11.97
2022-11-16T17:46:15.596Z,12.04
2022-11-16T17:48:47.478Z,12.13
2022-11-16T17:51:17.974Z,12.20
2022-11-16T17:53:47.022Z,12.21
2022-11-16T17:56:18.544Z,12.16
2022-11-16T17:58:47.639Z,12.13
2022-11-16T18:01:16.945Z,12.25
2022-11-16T18:03:47.282Z,12.18
2022-11-16T18:06:18.561Z,12.29
2022-11-16T18:08:48.031Z,12.39
2022-11-16T18:11:18.856Z,12.46
2022-11-16T18:13:48.194Z,12.26
2022-11-16T18:16:19.090Z,12.20
2022-11-16T18:18:50.390Z,12.20
2022-11-16T18:21:20.951Z,12.11
2022-11-16T18:23:50.042Z,12.45
2022-11-16T18:26:21.151Z,12.92
2022-11-16T18:28:51.024Z,12.67
2022-11-16T18:31:21.290Z,12.46
2022-11-16T18:33:52.514Z,12.05
2022-11-16T18:36:22.541Z,11.90
2022-11-16T18:38:51.706Z,12.03
2022-11-16T18:41:21.907Z,12.12
2022-11-16T18:43:52.702Z,12.18
2022-11-16T18:46:22.663Z,12.30
2022-11-16T18:48:53.333Z,12.44
2022-11-16T18:51:23.393Z,12.43
2022-11-16T18:53:52.300Z,12.14
2022-11-16T18:56:21.881Z,12.39
2022-11-16T18:58:52.687Z,12.41
2022-11-16T19:01:24.170Z,12.41
2022-11-16T19:03:55.729Z,12.39
2022-11-16T19:06:25.461Z,12.44
2022-11-16T19:08:59.392Z,12.28
2022-11-16T19:11:29.475Z,12.30
2022-11-16T19:14:01.187Z,12.20
2022-11-16T19:16:30.486Z,11.76
2022-11-16T19:19:02.069Z,11.62
2022-11-16T19:21:31.210Z,11.71
2022-11-16T19:24:00.113Z,11.65
2022-11-16T19:26:29.683Z,11.44
2022-11-16T19:28:59.445Z,11.72
2022-11-16T19:31:30.337Z,11.84
2022-11-16T19:34:02.023Z,12.01
2022-11-16T19:36:32.159Z,11.54
2022-11-16T19:39:01.141Z,11.08
2022-11-16T19:41:30.213Z,11.85
2022-11-16T19:44:02.149Z,12.26
2022-11-16T19:46:33.144Z,12.49
2022-11-16T19:49:04.171Z,12.47
2022-11-16T19:51:34.492Z,12.45
2022-11-16T19:54:04.416Z,12.49
2022-11-16T19:56:33.272Z,12.66
2022-11-16T19:59:02.256Z,12.85
2022-11-16T20:01:31.271Z,12.93
2022-11-16T20:04:02.196Z,13.00
2022-11-16T20:06:34.309Z,13.20
2022-11-16T20:09:08.750Z,13.02
2022-11-16T20:11:39.134Z,12.90
2022-11-16T20:14:09.933Z,12.77
2022-11-16T20:16:42.068Z,12.56
2022-11-16T20:19:11.731Z,12.75
2022-11-16T20:21:43.595Z,12.61
2022-11-16T20:24:14.826Z,12.32
2022-11-16T20:26:45.784Z,12.41
2022-11-16T20:29:15.665Z,12.46
2022-11-16T20:31:46.080Z,12.42
2022-11-16T20:34:16.748Z,12.39
2022-11-16T20:36:49.669Z,12.52
2022-11-16T20:39:20.256Z,12.44
2022-11-16T20:41:49.604Z,12.45
2022-11-16T20:44:22.102Z,12.44
2022-11-16T20:46:52.505Z,12.38
2022-11-16T20:49:21.592Z,12.29
2022-11-16T20:51:51.920Z,12.38
2022-11-16T20:54:20.823Z,12.45
2022-11-16T20:56:50.585Z,12.54
2022-11-16T20:59:19.553Z,12.49
2022-11-16T21:01:48.886Z,12.49
2022-11-16T21:04:18.062Z,12.56
2022-11-16T21:06:46.987Z,12.47
2022-11-16T21:09:22.518Z,12.52
2022-11-16T21:12:09.069Z,12.60
2022-11-16T21:14:37.998Z,12.51
2022-11-16T21:17:06.878Z,12.62
2022-11-16T21:19:35.734Z,12.67
2022-11-16T21:22:04.594Z,12.71
2022-11-16T21:24:34.890Z,12.50
2022-11-16T21:27:03.813Z,12.52
2022-11-16T21:29:32.688Z,12.58
2022-11-16T21:32:01.656Z,12.73
2022-11-16T21:34:34.631Z,12.62
2022-11-16T21:37:06.166Z,12.77
2022-11-16T21:39:36.423Z,12.69
2022-11-16T21:42:05.892Z,12.68
2022-11-16T21:44:42.040Z,12.69
2022-11-16T21:47:11.504Z,12.66
2022-11-16T21:50:00.923Z,12.59
2022-11-16T21:52:30.060Z,12.61
2022-11-16T21:55:03.016Z,12.71
2022-11-16T21:57:32.022Z,12.71
2022-11-16T22:00:02.005Z,12.73
2022-11-16T22:02:40.382Z,12.64
2022-11-16T22:05:27.942Z,12.64
2022-11-16T22:07:56.821Z,12.76
2022-11-16T22:10:27.044Z,12.82
2022-11-16T22:12:55.896Z,12.74
2022-11-16T22:15:24.771Z,12.86
2022-11-16T22:17:53.616Z,12.76
2022-11-16T22:20:22.619Z,12.69
2022-11-16T22:22:51.445Z,12.65
2022-11-16T22:25:20.489Z,12.57
2022-11-16T22:28:19.240Z,12.75
2022-11-16T22:30:39.745Z,12.46
2022-11-16T22:33:09.086Z,12.31
2022-11-16T22:35:38.604Z,12.44
2022-11-16T22:38:07.436Z,12.33
2022-11-16T22:40:36.330Z,12.48
2022-11-16T22:43:06.572Z,12.67
2022-11-16T22:45:35.437Z,12.54
2022-11-16T22:48:04.445Z,12.50
2022-11-16T22:50:33.285Z,12.69
2022-11-16T22:53:02.148Z,12.53
2022-11-16T22:55:31.180Z,12.48
2022-11-16T22:58:00.053Z,12.57
2022-11-16T23:00:30.820Z,12.38
2022-11-16T23:02:59.807Z,12.41
2022-11-16T23:05:28.679Z,12.54
2022-11-16T23:07:58.311Z,12.63
2022-11-16T23:10:27.150Z,12.67
2022-11-16T23:13:13.480Z,12.64
2022-11-16T23:15:52.866Z,12.80
2022-11-16T23:18:21.690Z,12.64
2022-11-16T23:21:08.063Z,12.77
2022-11-16T23:23:54.229Z,12.49
2022-11-16T23:26:42.164Z,12.32
2022-11-16T23:29:12.473Z,12.33
2022-11-16T23:31:42.711Z,12.41
2022-11-16T23:34:11.564Z,12.40
2022-11-16T23:36:40.598Z,12.29
2022-11-16T23:39:09.689Z,12.35
2022-11-16T23:41:55.791Z,12.01
2022-11-16T23:44:24.705Z,12.15
2022-11-16T23:46:54.929Z,12.24
2022-11-16T23:49:23.803Z,12.08
2022-11-16T23:51:52.675Z,12.22
2022-11-16T23:54:21.556Z,12.34
2022-11-16T23:56:50.571Z,12.35
2022-11-16T23:59:19.465Z,11.68
